sensor_id;sensor_type;location;lat;lon;timestamp;temperature;humidity
42097;DHT22;27754;45.414;11.084;2024-03-23T00:51:37;11.90;78.20
42097;DHT22;27754;45.414;11.084;2024-03-23T00:54:03;12.00;78.00
42097;DHT22;27754;45.414;11.084;2024-03-23T00:56:29;11.90;78.00
42097;DHT22;27754;45.414;11.084;2024-03-23T00:58:55;12.00;78.00
42097;DHT22;27754;45.414;11.084;2024-03-23T01:01:21;11.90;78.10
42097;DHT22;27754;45.414;11.084;2024-03-23T01:03:47;11.80;78.50
42097;DHT22;27754;45.414;11.084;2024-03-23T01:06:13;11.80;78.60
42097;DHT22;27754;45.414;11.084;2024-03-23T01:08:39;11.70;78.70
42097;DHT22;27754;45.414;11.084;2024-03-23T01:11:05;11.70;78.70
42097;DHT22;27754;45.414;11.084;2024-03-23T01:13:31;11.90;78.00
42097;DHT22;27754;45.414;11.084;2024-03-23T01:15:57;11.90;78.00
42097;DHT22;27754;45.414;11.084;2024-03-23T01:18:23;11.90;78.10
42097;DHT22;27754;45.414;11.084;2024-03-23T01:20:50;11.90;77.90
42097;DHT22;27754;45.414;11.084;2024-03-23T01:23:16;11.80;78.00
42097;DHT22;27754;45.414;11.084;2024-03-23T01:25:41;11.70;78.30
42097;DHT22;27754;45.414;11.084;2024-03-23T01:28:07;11.70;78.50
42097;DHT22;27754;45.414;11.084;2024-03-23T01:30:34;11.70;78.90
42097;DHT22;27754;45.414;11.084;2024-03-23T01:33:01;11.70;78.90
42097;DHT22;27754;45.414;11.084;2024-03-23T01:35:28;11.70;78.70
42097;DHT22;27754;45.414;11.084;2024-03-23T01:37:54;11.80;78.30
42097;DHT22;27754;45.414;11.084;2024-03-23T01:40:20;11.80;78.10
42097;DHT22;27754;45.414;11.084;2024-03-23T01:43:01;11.70;78.40
42097;DHT22;27754;45.414;11.084;2024-03-23T01:45:29;11.60;79.00
42097;DHT22;27754;45.414;11.084;2024-03-23T01:47:55;11.50;79.40
42097;DHT22;27754;45.414;11.084;2024-03-23T01:50:22;11.40;79.70
42097;DHT22;27754;45.414;11.084;2024-03-23T01:52:48;11.40;79.70
42097;DHT22;27754;45.414;11.084;2024-03-23T01:55:14;11.40;79.70
42097;DHT22;27754;45.414;11.084;2024-03-23T01:57:40;11.40;79.30
42097;DHT22;27754;45.414;11.084;2024-03-23T02:00:07;11.40;79.30
42097;DHT22;27754;45.414;11.084;2024-03-23T02:02:46;11.40;79.50
42097;DHT22;27754;45.414;11.084;2024-03-23T02:05:13;11.40;79.30
42097;DHT22;27754;45.414;11.084;2024-03-23T02:07:40;11.60;79.00
42097;DHT22;27754;45.414;11.084;2024-03-23T02:10:07;11.60;78.70
42097;DHT22;27754;45.414;11.084;2024-03-23T02:12:34;11.60;78.70
42097;DHT22;27754;45.414;11.084;2024-03-23T02:15:00;11.60;78.50
42097;DHT22;27754;45.414;11.084;2024-03-23T02:17:26;11.50;78.60
42097;DHT22;27754;45.414;11.084;2024-03-23T02:19:52;11.50;78.80
42097;DHT22;27754;45.414;11.084;2024-03-23T02:22:18;11.30;79.70
42097;DHT22;27754;45.414;11.084;2024-03-23T02:24:44;11.20;79.90
42097;DHT22;27754;45.414;11.084;2024-03-23T02:27:11;11.10;80.30
42097;DHT22;27754;45.414;11.084;2024-03-23T02:29:37;11.10;80.60
42097;DHT22;27754;45.414;11.084;2024-03-23T02:32:03;10.90;81.00
42097;DHT22;27754;45.414;11.084;2024-03-23T02:34:29;10.90;81.30
42097;DHT22;27754;45.414;11.084;2024-03-23T02:36:55;10.80;81.50
42097;DHT22;27754;45.414;11.084;2024-03-23T02:39:21;10.80;81.70
42097;DHT22;27754;45.414;11.084;2024-03-23T02:41:46;10.70;82.00
42097;DHT22;27754;45.414;11.084;2024-03-23T02:44:13;10.80;82.40
42097;DHT22;27754;45.414;11.084;2024-03-23T02:46:39;10.80;82.30
42097;DHT22;27754;45.414;11.084;2024-03-23T02:49:06;10.80;82.20
42097;DHT22;27754;45.414;11.084;2024-03-23T02:51:32;10.80;82.30
42097;DHT22;27754;45.414;11.084;2024-03-23T02:53:58;10.70;82.40
42097;DHT22;27754;45.414;11.084;2024-03-23T02:56:23;10.70;82.90
42097;DHT22;27754;45.414;11.084;2024-03-23T02:58:50;10.70;83.10
42097;DHT22;27754;45.414;11.084;2024-03-23T03:01:15;10.70;83.10
42097;DHT22;27754;45.414;11.084;2024-03-23T03:03:41;10.60;83.30
42097;DHT22;27754;45.414;11.084;2024-03-23T03:06:07;10.60;83.50
42097;DHT22;27754;45.414;11.084;2024-03-23T03:08:34;10.60;83.60
42097;DHT22;27754;45.414;11.084;2024-03-23T03:11:00;10.50;83.90
42097;DHT22;27754;45.414;11.084;2024-03-23T03:13:25;10.60;84.00
42097;DHT22;27754;45.414;11.084;2024-03-23T03:15:51;10.60;84.00
42097;DHT22;27754;45.414;11.084;2024-03-23T03:18:18;10.50;84.00
42097;DHT22;27754;45.414;11.084;2024-03-23T03:20:45;10.50;84.00
42097;DHT22;27754;45.414;11.084;2024-03-23T03:23:11;10.50;84.00
42097;DHT22;27754;45.414;11.084;2024-03-23T03:25:37;10.50;84.10
42097;DHT22;27754;45.414;11.084;2024-03-23T03:28:03;10.40;84.30
42097;DHT22;27754;45.414;11.084;2024-03-23T03:30:29;10.40;84.20
42097;DHT22;27754;45.414;11.084;2024-03-23T03:32:55;10.40;84.60
42097;DHT22;27754;45.414;11.084;2024-03-23T03:35:21;10.30;84.60
42097;DHT22;27754;45.414;11.084;2024-03-23T03:37:47;10.30;84.90
42097;DHT22;27754;45.414;11.084;2024-03-23T03:40:13;10.30;85.00
42097;DHT22;27754;45.414;11.084;2024-03-23T03:42:41;10.30;84.90
42097;DHT22;27754;45.414;11.084;2024-03-23T03:45:07;10.20;85.10
42097;DHT22;27754;45.414;11.084;2024-03-23T03:47:33;10.20;85.10
42097;DHT22;27754;45.414;11.084;2024-03-23T03:49:59;10.30;85.00
42097;DHT22;27754;45.414;11.084;2024-03-23T03:52:25;10.20;84.60
42097;DHT22;27754;45.414;11.084;2024-03-23T03:54:55;10.20;84.20
42097;DHT22;27754;45.414;11.084;2024-03-23T03:57:21;10.20;84.20
42097;DHT22;27754;45.414;11.084;2024-03-23T03:59:47;10.20;84.00
42097;DHT22;27754;45.414;11.084;2024-03-23T04:02:12;10.30;84.10
42097;DHT22;27754;45.414;11.084;2024-03-23T04:04:38;10.30;84.00
42097;DHT22;27754;45.414;11.084;2024-03-23T04:07:04;10.30;84.10
42097;DHT22;27754;45.414;11.084;2024-03-23T04:09:31;10.30;84.00
42097;DHT22;27754;45.414;11.084;2024-03-23T04:11:56;10.10;84.30
42097;DHT22;27754;45.414;11.084;2024-03-23T04:14:22;10.20;84.20
42097;DHT22;27754;45.414;11.084;2024-03-23T04:16:48;10.20;84.30
42097;DHT22;27754;45.414;11.084;2024-03-23T04:19:15;10.20;84.30
42097;DHT22;27754;45.414;11.084;2024-03-23T04:21:41;10.20;84.30
42097;DHT22;27754;45.414;11.084;2024-03-23T04:24:07;10.20;84.20
42097;DHT22;27754;45.414;11.084;2024-03-23T04:26:42;10.20;84.20
42097;DHT22;27754;45.414;11.084;2024-03-23T04:29:08;10.20;84.30
42097;DHT22;27754;45.414;11.084;2024-03-23T04:31:34;10.20;84.30
42097;DHT22;27754;45.414;11.084;2024-03-23T04:34:01;10.10;84.00
42097;DHT22;27754;45.414;11.084;2024-03-23T04:36:27;10.20;84.30
42097;DHT22;27754;45.414;11.084;2024-03-23T04:38:53;10.20;84.20
42097;DHT22;27754;45.414;11.084;2024-03-23T04:41:19;10.30;84.20
42097;DHT22;27754;45.414;11.084;2024-03-23T04:43:45;10.30;84.00
42097;DHT22;27754;45.414;11.084;2024-03-23T04:46:11;10.40;84.10
42097;DHT22;27754;45.414;11.084;2024-03-23T04:48:37;10.30;84.10
42097;DHT22;27754;45.414;11.084;2024-03-23T04:51:03;10.30;83.90
42097;DHT22;27754;45.414;11.084;2024-03-23T04:53:29;10.40;83.60
42097;DHT22;27754;45.414;11.084;2024-03-23T04:55:56;10.40;83.50
42097;DHT22;27754;45.414;11.084;2024-03-23T04:58:25;10.40;83.40
42097;DHT22;27754;45.414;11.084;2024-03-23T05:00:57;10.40;83.30
42097;DHT22;27754;45.414;11.084;2024-03-23T05:03:23;10.40;83.20
42097;DHT22;27754;45.414;11.084;2024-03-23T05:05:50;10.40;83.10
42097;DHT22;27754;45.414;11.084;2024-03-23T05:08:16;10.40;83.10
42097;DHT22;27754;45.414;11.084;2024-03-23T05:10:42;10.40;83.20
42097;DHT22;27754;45.414;11.084;2024-03-23T05:13:09;10.40;83.40
42097;DHT22;27754;45.414;11.084;2024-03-23T05:15:35;10.30;83.70
42097;DHT22;27754;45.414;11.084;2024-03-23T05:18:01;10.30;83.70
42097;DHT22;27754;45.414;11.084;2024-03-23T05:20:27;10.20;83.60
42097;DHT22;27754;45.414;11.084;2024-03-23T05:22:54;10.20;83.70
42097;DHT22;27754;45.414;11.084;2024-03-23T05:25:21;10.20;83.90
42097;DHT22;27754;45.414;11.084;2024-03-23T05:27:46;10.20;83.70
42097;DHT22;27754;45.414;11.084;2024-03-23T05:30:12;10.40;83.30
42097;DHT22;27754;45.414;11.084;2024-03-23T05:32:38;10.50;82.90
42097;DHT22;27754;45.414;11.084;2024-03-23T05:35:09;10.50;82.80
42097;DHT22;27754;45.414;11.084;2024-03-23T05:37:35;10.50;82.90
42097;DHT22;27754;45.414;11.084;2024-03-23T05:40:03;10.60;82.90
42097;DHT22;27754;45.414;11.084;2024-03-23T05:42:29;10.70;82.80
42097;DHT22;27754;45.414;11.084;2024-03-23T05:44:55;10.90;82.00
42097;DHT22;27754;45.414;11.084;2024-03-23T05:47:21;10.90;82.00
42097;DHT22;27754;45.414;11.084;2024-03-23T05:49:47;10.90;82.10
42097;DHT22;27754;45.414;11.084;2024-03-23T05:52:13;11.00;82.00
42097;DHT22;27754;45.414;11.084;2024-03-23T05:54:39;11.10;82.10
42097;DHT22;27754;45.414;11.084;2024-03-23T05:57:05;11.30;82.00
42097;DHT22;27754;45.414;11.084;2024-03-23T05:59:34;11.40;81.50
42097;DHT22;27754;45.414;11.084;2024-03-23T06:02:00;11.50;81.30
42097;DHT22;27754;45.414;11.084;2024-03-23T06:04:26;11.60;81.10
42097;DHT22;27754;45.414;11.084;2024-03-23T06:06:52;11.70;80.90
42097;DHT22;27754;45.414;11.084;2024-03-23T06:09:18;11.70;80.70
42097;DHT22;27754;45.414;11.084;2024-03-23T06:11:45;11.60;80.80
42097;DHT22;27754;45.414;11.084;2024-03-23T06:14:11;11.60;81.20
42097;DHT22;27754;45.414;11.084;2024-03-23T06:16:37;11.70;80.80
42097;DHT22;27754;45.414;11.084;2024-03-23T06:19:03;11.70;80.70
42097;DHT22;27754;45.414;11.084;2024-03-23T06:21:30;11.70;80.60
42097;DHT22;27754;45.414;11.084;2024-03-23T06:23:56;11.70;80.60
42097;DHT22;27754;45.414;11.084;2024-03-23T06:26:22;11.80;80.50
42097;DHT22;27754;45.414;11.084;2024-03-23T06:28:48;11.80;80.60
42097;DHT22;27754;45.414;11.084;2024-03-23T06:31:14;11.80;80.80
42097;DHT22;27754;45.414;11.084;2024-03-23T06:33:40;11.80;80.70
42097;DHT22;27754;45.414;11.084;2024-03-23T06:36:10;11.90;80.20
42097;DHT22;27754;45.414;11.084;2024-03-23T06:38:36;12.00;79.90
42097;DHT22;27754;45.414;11.084;2024-03-23T06:41:04;12.10;79.80
42097;DHT22;27754;45.414;11.084;2024-03-23T06:43:30;12.30;79.20
42097;DHT22;27754;45.414;11.084;2024-03-23T06:45:56;12.60;78.70
42097;DHT22;27754;45.414;11.084;2024-03-23T06:48:22;12.80;77.40
42097;DHT22;27754;45.414;11.084;2024-03-23T06:50:48;12.80;77.30
42097;DHT22;27754;45.414;11.084;2024-03-23T06:53:15;12.90;77.10
42097;DHT22;27754;45.414;11.084;2024-03-23T06:55:41;13.10;76.60
42097;DHT22;27754;45.414;11.084;2024-03-23T06:58:08;13.40;76.40
42097;DHT22;27754;45.414;11.084;2024-03-23T07:00:33;13.40;76.30
42097;DHT22;27754;45.414;11.084;2024-03-23T07:03:00;13.80;76.20
42097;DHT22;27754;45.414;11.084;2024-03-23T07:05:26;13.90;75.20
42097;DHT22;27754;45.414;11.084;2024-03-23T07:07:52;14.00;74.50
42097;DHT22;27754;45.414;11.084;2024-03-23T07:10:18;14.30;73.80
42097;DHT22;27754;45.414;11.084;2024-03-23T07:12:44;14.40;73.40
42097;DHT22;27754;45.414;11.084;2024-03-23T07:15:10;14.50;74.40
42097;DHT22;27754;45.414;11.084;2024-03-23T07:17:36;14.40;73.10
42097;DHT22;27754;45.414;11.084;2024-03-23T07:20:03;14.70;73.00
42097;DHT22;27754;45.414;11.084;2024-03-23T07:22:32;14.90;73.20
42097;DHT22;27754;45.414;11.084;2024-03-23T07:25:02;14.90;70.70
42097;DHT22;27754;45.414;11.084;2024-03-23T07:27:28;14.90;71.80
42097;DHT22;27754;45.414;11.084;2024-03-23T07:29:54;14.80;73.80
42097;DHT22;27754;45.414;11.084;2024-03-23T07:32:20;15.00;73.00
42097;DHT22;27754;45.414;11.084;2024-03-23T07:34:46;15.10;71.70
42097;DHT22;27754;45.414;11.084;2024-03-23T07:37:13;15.30;71.40
42097;DHT22;27754;45.414;11.084;2024-03-23T07:39:42;15.40;71.10
42097;DHT22;27754;45.414;11.084;2024-03-23T07:42:08;15.30;71.30
42097;DHT22;27754;45.414;11.084;2024-03-23T07:44:34;15.40;70.70
42097;DHT22;27754;45.414;11.084;2024-03-23T07:47:01;15.60;69.20
42097;DHT22;27754;45.414;11.084;2024-03-23T07:49:27;15.90;67.40
42097;DHT22;27754;45.414;11.084;2024-03-23T07:51:53;15.80;67.80
42097;DHT22;27754;45.414;11.084;2024-03-23T07:54:19;16.20;67.70
42097;DHT22;27754;45.414;11.084;2024-03-23T07:56:45;16.50;67.80
42097;DHT22;27754;45.414;11.084;2024-03-23T07:59:11;16.70;67.90
42097;DHT22;27754;45.414;11.084;2024-03-23T08:01:38;16.90;67.40
42097;DHT22;27754;45.414;11.084;2024-03-23T08:04:06;17.00;67.10
42097;DHT22;27754;45.414;11.084;2024-03-23T08:06:32;17.10;67.00
42097;DHT22;27754;45.414;11.084;2024-03-23T08:08:58;17.00;66.40
42097;DHT22;27754;45.414;11.084;2024-03-23T08:11:31;17.20;67.10
42097;DHT22;27754;45.414;11.084;2024-03-23T08:13:58;17.20;66.90
42097;DHT22;27754;45.414;11.084;2024-03-23T08:16:24;17.10;67.80
42097;DHT22;27754;45.414;11.084;2024-03-23T08:18:54;16.90;68.80
42097;DHT22;27754;45.414;11.084;2024-03-23T08:21:22;16.80;70.10
42097;DHT22;27754;45.414;11.084;2024-03-23T08:23:48;16.80;69.70
42097;DHT22;27754;45.414;11.084;2024-03-23T08:26:15;16.60;69.50
42097;DHT22;27754;45.414;11.084;2024-03-23T08:28:42;16.70;69.90
42097;DHT22;27754;45.414;11.084;2024-03-23T08:31:09;16.70;69.90
42097;DHT22;27754;45.414;11.084;2024-03-23T08:33:36;17.10;69.70
42097;DHT22;27754;45.414;11.084;2024-03-23T08:36:07;17.30;69.60
42097;DHT22;27754;45.414;11.084;2024-03-23T08:38:34;17.30;68.50
42097;DHT22;27754;45.414;11.084;2024-03-23T08:41:05;17.30;68.10
42097;DHT22;27754;45.414;11.084;2024-03-23T08:43:33;17.30;68.40
42097;DHT22;27754;45.414;11.084;2024-03-23T08:46:06;17.30;69.20
42097;DHT22;27754;45.414;11.084;2024-03-23T08:48:37;17.30;69.40
42097;DHT22;27754;45.414;11.084;2024-03-23T08:51:04;17.40;69.40
42097;DHT22;27754;45.414;11.084;2024-03-23T08:53:30;17.50;68.70
42097;DHT22;27754;45.414;11.084;2024-03-23T08:55:57;17.50;70.10
42097;DHT22;27754;45.414;11.084;2024-03-23T08:58:27;17.50;69.70
42097;DHT22;27754;45.414;11.084;2024-03-23T09:00:54;17.60;70.60
42097;DHT22;27754;45.414;11.084;2024-03-23T09:03:27;17.60;70.00
42097;DHT22;27754;45.414;11.084;2024-03-23T09:05:53;17.60;69.00
42097;DHT22;27754;45.414;11.084;2024-03-23T09:08:21;17.70;69.00
42097;DHT22;27754;45.414;11.084;2024-03-23T09:10:48;17.60;69.10
42097;DHT22;27754;45.414;11.084;2024-03-23T09:13:14;17.80;69.00
42097;DHT22;27754;45.414;11.084;2024-03-23T09:15:50;17.80;69.40
42097;DHT22;27754;45.414;11.084;2024-03-23T09:18:17;17.90;68.30
42097;DHT22;27754;45.414;11.084;2024-03-23T09:20:43;17.80;67.40
42097;DHT22;27754;45.414;11.084;2024-03-23T09:23:09;17.80;67.40
42097;DHT22;27754;45.414;11.084;2024-03-23T09:25:38;17.90;67.50
42097;DHT22;27754;45.414;11.084;2024-03-23T09:28:05;17.60;67.40
42097;DHT22;27754;45.414;11.084;2024-03-23T09:30:35;17.70;67.80
42097;DHT22;27754;45.414;11.084;2024-03-23T09:33:02;17.70;67.80
42097;DHT22;27754;45.414;11.084;2024-03-23T09:35:28;17.70;68.60
42097;DHT22;27754;45.414;11.084;2024-03-23T09:37:54;17.50;68.20
42097;DHT22;27754;45.414;11.084;2024-03-23T09:40:20;17.70;68.70
42097;DHT22;27754;45.414;11.084;2024-03-23T09:42:50;17.80;68.00
42097;DHT22;27754;45.414;11.084;2024-03-23T09:45:27;17.60;67.80
42097;DHT22;27754;45.414;11.084;2024-03-23T09:47:55;17.70;68.80
42097;DHT22;27754;45.414;11.084;2024-03-23T09:50:22;18.00;68.60
42097;DHT22;27754;45.414;11.084;2024-03-23T09:52:48;18.10;67.50
42097;DHT22;27754;45.414;11.084;2024-03-23T09:55:14;18.10;66.40
42097;DHT22;27754;45.414;11.084;2024-03-23T09:57:41;18.20;66.30
42097;DHT22;27754;45.414;11.084;2024-03-23T10:00:08;18.20;65.70
42097;DHT22;27754;45.414;11.084;2024-03-23T10:02:35;18.20;65.80
42097;DHT22;27754;45.414;11.084;2024-03-23T10:05:01;18.20;65.00
42097;DHT22;27754;45.414;11.084;2024-03-23T10:07:27;18.20;65.20
42097;DHT22;27754;45.414;11.084;2024-03-23T10:09:56;18.20;65.80
42097;DHT22;27754;45.414;11.084;2024-03-23T10:12:23;18.40;65.80
42097;DHT22;27754;45.414;11.084;2024-03-23T10:14:49;18.40;66.00
42097;DHT22;27754;45.414;11.084;2024-03-23T10:17:17;18.40;65.60
42097;DHT22;27754;45.414;11.084;2024-03-23T10:19:48;18.50;65.10
42097;DHT22;27754;45.414;11.084;2024-03-23T10:22:20;18.50;66.50
42097;DHT22;27754;45.414;11.084;2024-03-23T10:24:47;18.40;66.80
42097;DHT22;27754;45.414;11.084;2024-03-23T10:27:19;18.60;67.00
42097;DHT22;27754;45.414;11.084;2024-03-23T10:29:49;18.60;64.90
42097;DHT22;27754;45.414;11.084;2024-03-23T10:32:16;18.70;65.10
42097;DHT22;27754;45.414;11.084;2024-03-23T10:34:43;18.60;65.10
42097;DHT22;27754;45.414;11.084;2024-03-23T10:37:09;18.60;65.60
42097;DHT22;27754;45.414;11.084;2024-03-23T10:39:40;18.60;65.60
42097;DHT22;27754;45.414;11.084;2024-03-23T10:42:08;18.70;64.90
42097;DHT22;27754;45.414;11.084;2024-03-23T10:44:36;18.80;65.30
42097;DHT22;27754;45.414;11.084;2024-03-23T10:47:03;18.80;64.80
42097;DHT22;27754;45.414;11.084;2024-03-23T10:49:33;18.80;63.70
42097;DHT22;27754;45.414;11.084;2024-03-23T10:52:00;18.70;64.00
42097;DHT22;27754;45.414;11.084;2024-03-23T10:54:26;18.70;64.60
42097;DHT22;27754;45.414;11.084;2024-03-23T10:57:17;18.80;65.10
42097;DHT22;27754;45.414;11.084;2024-03-23T10:59:44;18.60;66.30
42097;DHT22;27754;45.414;11.084;2024-03-23T11:02:20;18.80;66.80
42097;DHT22;27754;45.414;11.084;2024-03-23T11:04:47;18.90;66.10
42097;DHT22;27754;45.414;11.084;2024-03-23T11:07:28;19.10;66.00
42097;DHT22;27754;45.414;11.084;2024-03-23T11:09:54;19.10;64.00
42097;DHT22;27754;45.414;11.084;2024-03-23T11:14:55;19.10;64.10
42097;DHT22;27754;45.414;11.084;2024-03-23T11:17:23;19.10;64.00
42097;DHT22;27754;45.414;11.084;2024-03-23T11:20:04;19.10;62.80
42097;DHT22;27754;45.414;11.084;2024-03-23T11:22:48;19.10;62.50
42097;DHT22;27754;45.414;11.084;2024-03-23T11:25:22;19.20;62.00
42097;DHT22;27754;45.414;11.084;2024-03-23T11:27:56;19.00;61.90
42097;DHT22;27754;45.414;11.084;2024-03-23T11:30:27;19.00;63.90
42097;DHT22;27754;45.414;11.084;2024-03-23T11:32:57;19.00;62.80
42097;DHT22;27754;45.414;11.084;2024-03-23T11:35:31;19.10;62.30
42097;DHT22;27754;45.414;11.084;2024-03-23T11:40:31;19.10;61.30
42097;DHT22;27754;45.414;11.084;2024-03-23T11:43:01;19.40;61.50
42097;DHT22;27754;45.414;11.084;2024-03-23T11:45:31;19.40;61.40
42097;DHT22;27754;45.414;11.084;2024-03-23T11:48:07;19.40;61.00
42097;DHT22;27754;45.414;11.084;2024-03-23T11:50:35;19.60;61.00
42097;DHT22;27754;45.414;11.084;2024-03-23T11:53:21;19.70;61.20
42097;DHT22;27754;45.414;11.084;2024-03-23T11:55:50;19.80;61.00
42097;DHT22;27754;45.414;11.084;2024-03-23T11:58:18;19.80;60.60
42097;DHT22;27754;45.414;11.084;2024-03-23T12:03:18;19.70;58.80
42097;DHT22;27754;45.414;11.084;2024-03-23T12:05:48;19.80;58.90
42097;DHT22;27754;45.414;11.084;2024-03-23T12:10:48;20.00;58.70
42097;DHT22;27754;45.414;11.084;2024-03-23T12:13:16;20.10;58.90
42097;DHT22;27754;45.414;11.084;2024-03-23T12:15:47;20.20;59.40
42097;DHT22;27754;45.414;11.084;2024-03-23T12:18:14;20.40;59.60
42097;DHT22;27754;45.414;11.084;2024-03-23T12:20:40;20.40;60.00
42097;DHT22;27754;45.414;11.084;2024-03-23T12:23:15;20.40;60.30
42097;DHT22;27754;45.414;11.084;2024-03-23T12:25:43;20.40;60.00
42097;DHT22;27754;45.414;11.084;2024-03-23T12:28:09;20.10;60.50
42097;DHT22;27754;45.414;11.084;2024-03-23T12:30:38;20.10;60.00
42097;DHT22;27754;45.414;11.084;2024-03-23T12:33:05;20.30;60.30
42097;DHT22;27754;45.414;11.084;2024-03-23T12:35:31;20.30;59.70
42097;DHT22;27754;45.414;11.084;2024-03-23T12:37:57;20.60;58.70
42097;DHT22;27754;45.414;11.084;2024-03-23T12:40:23;20.60;59.10
42097;DHT22;27754;45.414;11.084;2024-03-23T12:42:49;20.90;58.80
42097;DHT22;27754;45.414;11.084;2024-03-23T12:45:15;21.20;58.20
42097;DHT22;27754;45.414;11.084;2024-03-23T12:47:41;21.00;57.80
42097;DHT22;27754;45.414;11.084;2024-03-23T12:50:07;21.00;57.20
42097;DHT22;27754;45.414;11.084;2024-03-23T12:52:33;20.90;55.90
42097;DHT22;27754;45.414;11.084;2024-03-23T12:54:59;20.80;56.10
42097;DHT22;27754;45.414;11.084;2024-03-23T12:57:26;20.90;56.90
42097;DHT22;27754;45.414;11.084;2024-03-23T12:59:52;21.10;55.70
42097;DHT22;27754;45.414;11.084;2024-03-23T13:02:22;21.30;55.80
42097;DHT22;27754;45.414;11.084;2024-03-23T13:04:55;21.40;54.60
42097;DHT22;27754;45.414;11.084;2024-03-23T13:07:22;21.30;54.50
42097;DHT22;27754;45.414;11.084;2024-03-23T13:09:51;21.40;53.80
42097;DHT22;27754;45.414;11.084;2024-03-23T13:12:18;21.40;54.60
42097;DHT22;27754;45.414;11.084;2024-03-23T13:14:45;21.10;54.50
42097;DHT22;27754;45.414;11.084;2024-03-23T13:17:11;20.90;54.20
42097;DHT22;27754;45.414;11.084;2024-03-23T13:19:37;20.70;54.80
42097;DHT22;27754;45.414;11.084;2024-03-23T13:22:03;20.50;56.70
42097;DHT22;27754;45.414;11.084;2024-03-23T13:24:30;20.40;56.40
42097;DHT22;27754;45.414;11.084;2024-03-23T13:26:56;20.60;57.20
42097;DHT22;27754;45.414;11.084;2024-03-23T13:29:23;20.60;57.10
42097;DHT22;27754;45.414;11.084;2024-03-23T13:31:50;20.70;58.20
42097;DHT22;27754;45.414;11.084;2024-03-23T13:34:17;20.60;58.20
42097;DHT22;27754;45.414;11.084;2024-03-23T13:36:47;20.70;58.90
42097;DHT22;27754;45.414;11.084;2024-03-23T13:39:14;20.40;59.80
42097;DHT22;27754;45.414;11.084;2024-03-23T13:41:42;20.60;58.30
42097;DHT22;27754;45.414;11.084;2024-03-23T13:44:10;20.70;60.30
42097;DHT22;27754;45.414;11.084;2024-03-23T13:46:37;20.90;58.60
42097;DHT22;27754;45.414;11.084;2024-03-23T13:49:04;21.00;57.80
42097;DHT22;27754;45.414;11.084;2024-03-23T13:51:30;21.00;58.00
42097;DHT22;27754;45.414;11.084;2024-03-23T13:53:56;21.00;58.90
42097;DHT22;27754;45.414;11.084;2024-03-23T13:56:26;20.90;58.60
42097;DHT22;27754;45.414;11.084;2024-03-23T13:58:54;20.80;59.10
42097;DHT22;27754;45.414;11.084;2024-03-23T14:01:20;20.90;57.50
42097;DHT22;27754;45.414;11.084;2024-03-23T14:03:45;20.90;57.80
42097;DHT22;27754;45.414;11.084;2024-03-23T14:06:11;21.00;57.40
42097;DHT22;27754;45.414;11.084;2024-03-23T14:08:38;20.90;58.30
42097;DHT22;27754;45.414;11.084;2024-03-23T14:11:08;20.90;58.90
42097;DHT22;27754;45.414;11.084;2024-03-23T14:13:35;20.70;58.40
42097;DHT22;27754;45.414;11.084;2024-03-23T14:16:01;20.70;58.00
42097;DHT22;27754;45.414;11.084;2024-03-23T14:18:28;20.60;58.30
42097;DHT22;27754;45.414;11.084;2024-03-23T14:20:58;20.60;58.30
42097;DHT22;27754;45.414;11.084;2024-03-23T14:23:25;20.60;58.60
42097;DHT22;27754;45.414;11.084;2024-03-23T14:25:55;20.60;58.20
42097;DHT22;27754;45.414;11.084;2024-03-23T14:28:22;20.70;58.40
42097;DHT22;27754;45.414;11.084;2024-03-23T14:30:49;20.70;57.60
42097;DHT22;27754;45.414;11.084;2024-03-23T14:33:16;20.50;58.80
42097;DHT22;27754;45.414;11.084;2024-03-23T14:35:42;20.40;58.70
42097;DHT22;27754;45.414;11.084;2024-03-23T14:38:08;20.50;59.40
42097;DHT22;27754;45.414;11.084;2024-03-23T14:40:34;20.50;58.30
42097;DHT22;27754;45.414;11.084;2024-03-23T14:43:00;20.50;58.40
42097;DHT22;27754;45.414;11.084;2024-03-23T14:45:26;20.50;59.60
42097;DHT22;27754;45.414;11.084;2024-03-23T14:47:52;20.50;59.60
42097;DHT22;27754;45.414;11.084;2024-03-23T14:50:18;20.40;58.90
42097;DHT22;27754;45.414;11.084;2024-03-23T14:52:47;20.30;59.00
42097;DHT22;27754;45.414;11.084;2024-03-23T14:55:13;20.30;59.20
42097;DHT22;27754;45.414;11.084;2024-03-23T14:57:39;20.40;59.60
42097;DHT22;27754;45.414;11.084;2024-03-23T15:00:09;20.40;59.50
42097;DHT22;27754;45.414;11.084;2024-03-23T15:02:39;20.40;60.40
42097;DHT22;27754;45.414;11.084;2024-03-23T15:05:06;20.30;59.90
42097;DHT22;27754;45.414;11.084;2024-03-23T15:07:36;20.30;60.40
42097;DHT22;27754;45.414;11.084;2024-03-23T15:10:05;20.10;60.80
42097;DHT22;27754;45.414;11.084;2024-03-23T15:12:31;19.90;60.40
42097;DHT22;27754;45.414;11.084;2024-03-23T15:15:00;19.70;60.90
42097;DHT22;27754;45.414;11.084;2024-03-23T15:17:26;19.80;62.20
42097;DHT22;27754;45.414;11.084;2024-03-23T15:19:52;19.80;61.70
42097;DHT22;27754;45.414;11.084;2024-03-23T15:22:20;19.70;61.70
42097;DHT22;27754;45.414;11.084;2024-03-23T15:24:47;19.50;61.70
42097;DHT22;27754;45.414;11.084;2024-03-23T15:27:13;19.40;62.60
42097;DHT22;27754;45.414;11.084;2024-03-23T15:29:39;19.40;62.80
42097;DHT22;27754;45.414;11.084;2024-03-23T15:32:05;19.30;63.00
42097;DHT22;27754;45.414;11.084;2024-03-23T15:34:31;19.10;63.30
42097;DHT22;27754;45.414;11.084;2024-03-23T15:36:57;19.10;63.20
42097;DHT22;27754;45.414;11.084;2024-03-23T15:39:23;19.20;63.80
42097;DHT22;27754;45.414;11.084;2024-03-23T15:41:49;19.20;63.50
42097;DHT22;27754;45.414;11.084;2024-03-23T15:44:15;19.10;63.60
42097;DHT22;27754;45.414;11.084;2024-03-23T15:46:41;19.10;63.60
42097;DHT22;27754;45.414;11.084;2024-03-23T15:49:07;19.10;63.80
42097;DHT22;27754;45.414;11.084;2024-03-23T15:51:33;19.20;63.60
42097;DHT22;27754;45.414;11.084;2024-03-23T15:54:00;19.20;64.10
42097;DHT22;27754;45.414;11.084;2024-03-23T15:56:28;19.10;64.20
42097;DHT22;27754;45.414;11.084;2024-03-23T15:58:54;19.10;63.80
42097;DHT22;27754;45.414;11.084;2024-03-23T16:01:20;19.10;64.30
42097;DHT22;27754;45.414;11.084;2024-03-23T16:03:47;19.10;63.70
42097;DHT22;27754;45.414;11.084;2024-03-23T16:06:13;19.00;64.60
42097;DHT22;27754;45.414;11.084;2024-03-23T16:08:39;18.90;64.80
42097;DHT22;27754;45.414;11.084;2024-03-23T16:11:07;18.80;64.70
42097;DHT22;27754;45.414;11.084;2024-03-23T16:13:34;18.60;64.80
42097;DHT22;27754;45.414;11.084;2024-03-23T16:16:02;18.50;65.10